Aérodrome :
LOGIN :

S'inscrire | Disclaimer

   EN    FR    IT 

 










Légende :    VFR   VFR Marginal   IFR   IFR Intensif   IFR Très Intensif
Visi : 
Plafond : 
>= 8 km
>= 3000ft
5 à 8 km
1000 à 3000 ft
1500m à 5 km
500 à 1000 ft
800 à 1500m
200 à 500 ft
< 800m
< 200 ft
Symboles :   Orages  Brouillard  Fortes neiges  Fortes précipitations  Vent > 20 kt
SIGMETs :   Divers  Orages  Givrage  Turbulence  Onde Orograph.  Cendres Volcan.






- Altitude de l'aérodrome : 1276 ft
- Code IATA : STR


EDDS - Stuttgart

DERNIER METAR :
  • 250520Z 28007KT 9999 FEW040 13/08 Q1032 NOSIG

METARs EXPIRÉS :
  • 250450Z 28007KT 9999 FEW030 SCT040 12/08 Q1032 NOSIG
  • 250420Z 28005KT 9999 FEW030 SCT039 12/08 Q1032 NOSIG
  • 250350Z 28006KT 9999 FEW030 SCT045 11/08 Q1032
  • 250320Z 28003KT 240V300 9999 FEW027 BKN036 12/08 Q1032
  • 250250Z 25004KT 9999 FEW027 11/08 Q1032

TAF TAF EDDS
Valide du 25 à 06h jusqu'au 26 à 06h UTC


250500Z 2506/2606 28004KT 9999 SCT035
BECMG 2508/2511 30010KT
BECMG 2517/2520 31005KT
BECMG 2520/2522 VRB03KT



MET'MAP, la Météo Aéronautique d'un coup d'oeil ! - Copyright ORBIFLY Décembre 2007 - Disclaimer

ORBIFLY MET'MAP TEAM :

Programmation & Développement : Alexandra Zaïnal
Sur une idée originale de : Baudouin d'Aumeries
Assistance à la programmation : Marc-Olivier Méhu
Soutien technique & logistique : Manuel Goepfert

Contact : metmap@orbifly.com




SOURCES & CREDITS :

   NOAA